createdAt,value
2023-04-16T05:05:06.671Z,64.50
2023-04-16T05:10:10.455Z,65.40
2023-04-16T05:15:13.971Z,66.30
2023-04-16T05:20:18.691Z,66.30
2023-04-16T05:25:22.374Z,65.80
2023-04-16T05:30:25.723Z,66.40
2023-04-16T05:35:30.462Z,66.00
2023-04-16T05:40:33.855Z,66.30
2023-04-16T05:45:40.936Z,66.10
2023-04-16T05:50:45.704Z,66.60
2023-04-16T05:55:49.049Z,66.00
2023-04-16T06:00:52.802Z,66.60
2023-04-16T06:05:57.649Z,66.20
2023-04-16T06:11:01.190Z,66.00
2023-04-16T06:16:04.768Z,65.70
2023-04-16T06:21:09.520Z,65.50
2023-04-16T06:26:12.902Z,65.60
2023-04-16T06:31:16.318Z,65.90
2023-04-16T06:36:21.023Z,66.80
2023-04-16T06:41:25.774Z,65.60
2023-04-16T06:46:29.179Z,65.60
2023-04-16T06:51:34.060Z,65.50
2023-04-16T06:56:37.722Z,65.60
2023-04-16T07:01:41.473Z,65.50
2023-04-16T07:06:46.259Z,65.50
2023-04-16T07:11:49.586Z,65.50
2023-04-16T07:16:52.983Z,65.70
2023-04-16T07:21:57.744Z,65.60
2023-04-16T07:27:01.075Z,65.40
2023-04-16T07:32:04.444Z,65.30
2023-04-16T07:37:09.569Z,65.60
2023-04-16T07:42:12.996Z,65.00
2023-04-16T07:47:16.317Z,64.70
2023-04-16T07:52:21.154Z,64.70
2023-04-16T07:57:24.603Z,64.20
2023-04-16T08:02:28.065Z,63.00
2023-04-16T08:07:34.463Z,64.70
2023-04-16T08:12:38.228Z,64.20
2023-04-16T08:17:41.649Z,64.10
2023-04-16T08:22:46.424Z,63.70
2023-04-16T08:27:49.758Z,63.50
2023-04-16T08:32:53.860Z,62.90
2023-04-16T08:38:02.190Z,62.50
2023-04-16T08:43:07.338Z,62.10
2023-04-16T08:48:12.479Z,62.10
2023-04-16T08:53:20.011Z,61.20
2023-04-16T08:58:24.263Z,61.00
2023-04-16T09:03:29.600Z,59.60
2023-04-16T09:08:35.804Z,58.30
2023-04-16T09:13:39.289Z,57.80
2023-04-16T09:18:42.599Z,57.10
2023-04-16T09:23:48.258Z,57.20
2023-04-16T09:28:51.930Z,56.20
2023-04-16T09:34:05.523Z,56.00
2023-04-16T09:39:19.459Z,55.00
2023-04-16T09:44:35.580Z,55.30
2023-04-16T09:49:42.502Z,55.90
2023-04-16T09:54:51.014Z,56.70
2023-04-16T09:59:57.387Z,54.60
2023-04-16T10:05:02.124Z,56.70
2023-04-16T10:10:07.884Z,55.90
2023-04-16T10:15:11.782Z,54.70
2023-04-16T10:20:17.156Z,54.40
2023-04-16T10:25:22.485Z,54.40
2023-04-16T10:30:26.799Z,52.80
2023-04-16T10:35:31.383Z,52.60
2023-04-16T10:40:36.272Z,52.90
2023-04-16T10:45:39.560Z,52.50
2023-04-16T10:50:43.004Z,52.70
2023-04-16T10:55:58.557Z,52.50
2023-04-16T11:01:01.961Z,53.30
2023-04-16T11:06:11.989Z,52.10
2023-04-16T11:11:16.736Z,52.50
2023-04-16T11:16:20.079Z,52.10
2023-04-16T11:21:23.456Z,53.00
2023-04-16T11:26:28.962Z,52.40
2023-04-16T11:31:32.375Z,51.50
2023-04-16T11:36:43.883Z,51.50
2023-04-16T11:41:49.278Z,52.40
2023-04-16T11:46:53.066Z,52.90
2023-04-16T11:51:56.554Z,53.50
2023-04-16T11:57:04.353Z,54.40
2023-04-16T12:02:07.971Z,55.80
2023-04-16T12:07:11.855Z,56.20
2023-04-16T12:12:30.889Z,55.20
2023-04-16T12:17:35.598Z,53.90
2023-04-16T12:22:39.947Z,53.40
2023-04-16T12:27:46.740Z,53.20
2023-04-16T12:32:51.867Z,51.80
2023-04-16T12:37:55.427Z,50.80
2023-04-16T12:43:00.187Z,50.60
2023-04-16T12:48:03.596Z,50.30
2023-04-16T12:53:07.097Z,50.00
2023-04-16T12:58:12.649Z,49.40
2023-04-16T13:03:16.217Z,49.30
2023-04-16T13:08:19.676Z,49.50
2023-04-16T13:13:24.337Z,49.20
2023-04-16T13:18:28.027Z,49.50
2023-04-16T13:23:31.523Z,50.50
2023-04-16T13:28:36.248Z,50.70
2023-04-16T13:33:39.657Z,50.00
2023-04-16T13:38:43.328Z,50.10
2023-04-16T13:43:48.139Z,49.70
2023-04-16T13:48:51.487Z,49.30
2023-04-16T13:53:55.362Z,48.00
2023-04-16T13:59:00.071Z,47.40
2023-04-16T14:04:06.424Z,47.70
2023-04-16T14:09:11.034Z,48.60
2023-04-16T14:14:16.005Z,49.60
2023-04-16T14:19:19.361Z,50.50
2023-04-16T14:24:22.771Z,50.30
2023-04-16T14:29:27.480Z,49.60
2023-04-16T14:34:30.954Z,49.20
2023-04-16T14:39:34.272Z,48.80
2023-04-16T14:44:39.281Z,48.40
2023-04-16T14:49:42.568Z,48.60
2023-04-16T14:54:45.914Z,48.70
2023-04-16T14:59:50.635Z,49.30
2023-04-16T15:04:54.701Z,49.80
2023-04-16T15:09:58.026Z,50.00
2023-04-16T15:15:02.922Z,50.00
2023-04-16T15:20:08.194Z,50.50
2023-04-16T15:25:11.611Z,50.70
2023-04-16T15:30:17.495Z,50.80
2023-04-16T15:35:20.825Z,51.00
2023-04-16T15:40:25.454Z,51.30
2023-04-16T15:45:30.377Z,51.20
2023-04-16T15:50:33.999Z,51.40
2023-04-16T15:55:37.446Z,51.70
2023-04-16T16:00:42.175Z,51.90
2023-04-16T16:05:47.084Z,51.90
2023-04-16T16:10:50.619Z,51.80
2023-04-16T16:15:55.449Z,51.70
2023-04-16T16:20:58.993Z,51.90
2023-04-16T16:26:02.336Z,52.20
2023-04-16T16:31:07.391Z,52.30
2023-04-16T16:36:11.246Z,52.50
2023-04-16T16:41:14.726Z,52.50
2023-04-16T16:46:19.436Z,52.40
2023-04-16T16:51:22.823Z,52.40
2023-04-16T16:56:26.205Z,52.50
2023-04-16T17:01:31.701Z,52.40
2023-04-16T17:06:35.204Z,52.30
2023-04-16T17:11:38.888Z,52.50
2023-04-16T17:16:46.439Z,52.40
2023-04-16T17:21:49.853Z,52.50
2023-04-16T17:26:53.227Z,52.70
2023-04-16T17:31:58.272Z,52.90
2023-04-16T17:37:01.601Z,52.90
2023-04-16T17:42:05.123Z,53.00
2023-04-16T17:47:10.058Z,53.00
2023-04-16T17:52:13.564Z,53.10
2023-04-16T17:57:16.944Z,53.20
2023-04-16T18:02:21.772Z,53.40
2023-04-16T18:07:25.186Z,53.60
2023-04-16T18:12:28.562Z,53.90
2023-04-16T18:17:33.290Z,54.10
2023-04-16T18:22:36.758Z,54.40
2023-04-16T18:27:40.098Z,54.50
2023-04-16T18:33:04.242Z,54.60
2023-04-16T18:38:08.153Z,54.60
2023-04-16T18:43:11.775Z,54.90
2023-04-16T18:48:16.580Z,55.10
2023-04-16T18:53:19.977Z,55.20
2023-04-16T18:58:23.631Z,55.50
2023-04-16T19:03:28.610Z,56.00
2023-04-16T19:08:32.172Z,56.10
2023-04-16T19:13:35.800Z,56.30
2023-04-16T19:18:40.648Z,56.50
2023-04-16T19:23:43.978Z,56.50
2023-04-16T19:28:47.282Z,56.70
2023-04-16T19:33:52.627Z,56.70
2023-04-16T19:38:55.947Z,56.70
2023-04-16T19:43:59.383Z,57.30
2023-04-16T19:49:04.381Z,56.70
2023-04-16T19:54:07.690Z,56.80
2023-04-16T19:59:11.353Z,56.90
2023-04-16T20:04:16.404Z,56.90
2023-04-16T20:09:20.228Z,56.90
2023-04-16T20:14:23.584Z,57.00
2023-04-16T20:19:31.490Z,57.00
2023-04-16T20:24:34.776Z,57.00
2023-04-16T20:29:38.269Z,57.10
2023-04-16T20:34:43.031Z,57.30
2023-04-16T20:39:46.888Z,57.30
2023-04-16T20:44:51.185Z,57.60
2023-04-16T20:49:55.857Z,57.60
2023-04-16T20:54:59.240Z,57.80
2023-04-16T21:00:05.802Z,58.00
2023-04-16T21:05:14.282Z,57.90
2023-04-16T21:10:20.249Z,57.90
2023-04-16T21:15:23.902Z,57.90
2023-04-16T21:20:30.455Z,57.90
2023-04-16T21:25:34.041Z,57.80
2023-04-16T21:30:38.272Z,57.80
2023-04-16T21:35:43.283Z,57.90
2023-04-16T21:40:46.666Z,58.00
2023-04-16T21:45:50.022Z,58.20
2023-04-16T21:50:58.134Z,58.00
2023-04-16T21:56:01.596Z,58.00
2023-04-16T22:01:05.078Z,58.20
2023-04-16T22:06:09.945Z,58.50
2023-04-16T22:11:13.316Z,58.70
2023-04-16T22:16:16.681Z,59.00
2023-04-16T22:21:21.452Z,59.30
2023-04-16T22:26:24.743Z,59.20
